Flight Track Log - Related Links

Times and Time Zones

All times are in EDT time to prevent confusion due to time zone crossing. See the AAL1326 flight status page for this flight to view local times or setup timezone preferences in your user account.

Time Position Orientation Groundspeed Altitude Reporting Facility
EDT Latitude Longitude Course Direction KTS MPH feet Rate Location/Type
Thu 06:53:16 PM 41.9500 -87.9167 180° South 167 192 1,700  Level Chicago TRACON
Thu 06:54:16 PM 41.8833 -87.9000 169° South 234 269 3,300 2,239 Climbing Chicago TRACON
Thu 06:55:00 PM 41.6593 -87.7121 166° South  Level Estimated
Thu 06:55:30 PM 41.7972 -87.8769 169° South 260 299 6,700  Level Chicago Center
Thu 06:56:00 PM 41.5518 -87.6477 167° South  Level Estimated
Thu 06:56:16 PM 41.7333 -87.8500 163° South 288 331 9,400  Level Chicago TRACON
Thu 06:57:00 PM 41.4442 -87.5835 180° South  Level Estimated
Thu 06:58:00 PM 41.3366 -87.5195 180° South  Level Estimated
Thu 06:58:36 PM 41.5481 -87.7761 163° South 320 368 15,700  Level Chicago Center
Thu 06:59:38 PM 41.4539 -87.7403 164° South 346 398 17,200 1,839 Climbing Chicago Center
Thu 07:00:40 PM 41.3439 -87.7242 174° South 393 452 19,500 1,935 Climbing Chicago Center
Thu 07:01:42 PM 41.2306 -87.7275 181° South 402 463 21,200 2,081 Climbing Chicago Center
Thu 07:02:44 PM 41.0881 -87.7128 176° South 428 493 23,800 2,226 Climbing Chicago Center
Thu 07:03:46 PM 40.9669 -87.6922 173° South 439 505 25,800 1,597 Climbing Chicago Center
Thu 07:04:48 PM 40.8511 -87.6364 160° South 449 517 27,100 581 Climbing Chicago Center
Thu 07:05:50 PM 40.7286 -87.5758 159° South 469 540 27,000 -48 Descending Chicago Center
Thu 07:06:52 PM 40.6031 -87.5150 160° South 482 555 27,000  Level Chicago Center
Thu 07:07:54 PM 40.4767 -87.4572 161° South 481 554 27,000  Level Chicago Center
Thu 07:08:56 PM 40.3456 -87.3978 161° South 481 554 27,000  Level Chicago Center
Thu 07:09:58 PM 40.1972 -87.3281 160° South 480 552 27,000  Level Chicago Center
Thu 07:10:50 PM 40.0906 -87.2769 160° South 479 551 27,000  Level Indianapolis Center
Thu 07:11:52 PM 39.9658 -87.2208 161° South 471 542 27,000  Level Indianapolis Center
Thu 07:12:54 PM 39.8428 -87.1633 160° South 469 540 27,000  Level Indianapolis Center
Thu 07:13:56 PM 39.7189 -87.1061 160° South 469 540 27,000  Level Indianapolis Center
Thu 07:14:58 PM 39.5969 -87.0497 160° South 467 537 27,000  Level Indianapolis Center
Thu 07:15:59 PM 39.4544 -86.9842 160° South 465 535 27,000  Level Indianapolis Center
Thu 07:17:01 PM 39.3314 -86.9281 161° South 466 536 27,000  Level Indianapolis Center
Thu 07:18:03 PM 39.2097 -86.8725 161° South 463 533 27,000  Level Indianapolis Center
Thu 07:19:05 PM 39.0914 -86.8033 156° South 467 537 27,000  Level Indianapolis Center
Thu 07:20:06 PM 38.9761 -86.7242 152° Southeast 467 537 27,000 634 Level Indianapolis Center
Thu 07:21:08 PM 38.8611 -86.6456 152° Southeast 464 534 28,300 1,694 Climbing Indianapolis Center
Thu 07:22:10 PM 38.7494 -86.5706 152° Southeast 452 520 30,500 1,839 Climbing Indianapolis Center
Thu 07:23:12 PM 38.6403 -86.4975 152° Southeast 441 507 32,100 1,220 Climbing Indianapolis Center
Thu 07:24:13 PM 38.5308 -86.4236 152° Southeast 440 506 33,000 439 Climbing Indianapolis Center
Thu 07:25:15 PM 38.4219 -86.3508 152° Southeast 438 504 33,000 484 Level Indianapolis Center
Thu 07:26:17 PM 38.2903 -86.2644 153° Southeast 438 504 34,000 976 Climbing Indianapolis Center
Thu 07:27:18 PM 38.1814 -86.1919 152° Southeast 436 502 35,000 488 Climbing Indianapolis Center
Thu 07:28:20 PM 38.0719 -86.1200 153° Southeast 439 505 35,000  Level Indianapolis Center
Thu 07:29:22 PM 37.9642 -86.0497 153° Southeast 434 499 35,000 195 Level Indianapolis Center
Thu 07:30:23 PM 37.8572 -85.9786 152° Southeast 431 496 35,400 585 Climbing Indianapolis Center
Thu 07:31:25 PM 37.7486 -85.9097 153° Southeast 432 497 36,200 774 Climbing Indianapolis Center
Thu 07:32:27 PM 37.6389 -85.8392 153° Southeast 439 505 37,000 387 Climbing Indianapolis Center
Thu 07:33:29 PM 37.5308 -85.7672 152° Southeast 438 504 37,000  Level Indianapolis Center
Thu 07:34:30 PM 37.4225 -85.6983 153° Southeast 435 501 37,000  Level Indianapolis Center
Thu 07:35:32 PM 37.3122 -85.6400 157° South 426 490 37,000  Level Indianapolis Center
Thu 07:36:34 PM 37.1928 -85.6011 165° South 423 487 37,000  Level Indianapolis Center
Thu 07:37:35 PM 37.0597 -85.5542 164° South 422 486 37,000  Level Indianapolis Center
Thu 07:38:37 PM 36.9444 -85.5150 165° South 423 487 37,000  Level Indianapolis Center
Thu 07:39:39 PM 36.8467 -85.4819 165° South 415 478 37,000  Level Indianapolis Center
Thu 07:40:41 PM 36.7114 -85.4361 165° South 420 483 37,000  Level Indianapolis Center
Thu 07:41:42 PM 36.6003 -85.3986 165° South 415 478 37,000  Level Indianapolis Center
Thu 07:42:44 PM 36.4889 -85.3611 165° South 414 476 37,000  Level Indianapolis Center
Thu 07:43:46 PM 36.3778 -85.3250 165° South 414 476 37,000  Level Indianapolis Center
Thu 07:44:47 PM 36.2664 -85.2867 164° South 416 479 37,000  Level Indianapolis Center
Thu 07:45:47 PM 36.1544 -85.2525 166° South 402 463 37,000  Level Atlanta Center
Thu 07:46:47 PM 36.0444 -85.2150 165° South 407 468 37,000  Level Atlanta Center
Thu 07:47:47 PM 35.9300 -85.1772 165° South 412 474 37,000  Level Atlanta Center
Thu 07:48:47 PM 35.8197 -85.1425 166° South 417 480 37,000  Level Atlanta Center
Thu 07:49:47 PM 35.7075 -85.1053 165° South 412 474 37,000  Level Atlanta Center
Thu 07:50:48 PM 35.5972 -85.0681 165° South 412 474 37,000  Level Atlanta Center
Thu 07:51:47 PM 35.4869 -85.0308 165° South 412 474 37,000  Level Atlanta Center
Thu 07:52:47 PM 35.3767 -84.9964 166° South 412 474 37,000  Level Atlanta Center
Thu 07:53:47 PM 35.2664 -84.9594 165° South 412 474 37,000  Level Atlanta Center
Thu 07:54:47 PM 35.1581 -84.9253 166° South 412 474 37,000  Level Atlanta Center
Thu 07:55:47 PM 35.0456 -84.8886 165° South 412 474 37,000  Level Atlanta Center
Thu 07:56:47 PM 34.9394 -84.8522 164° South 412 474 37,000  Level Atlanta Center
Thu 07:57:47 PM 34.8311 -84.8206 167° South 407 468 37,000  Level Atlanta Center
Thu 07:58:47 PM 34.7228 -84.7842 165° South 407 468 37,000  Level Atlanta Center
Thu 07:59:47 PM 34.6042 -84.7428 164° South 412 474 37,000  Level Atlanta Center
Thu 08:00:47 PM 34.5042 -84.7117 166° South 412 474 37,000  Level Atlanta Center
Thu 08:01:47 PM 34.3917 -84.6756 165° South 412 474 37,000  Level Atlanta Center
Thu 08:02:47 PM 34.2831 -84.6647 175° South 406 467 37,000  Level Atlanta Center
Thu 08:03:47 PM 34.1725 -84.6539 175° South 406 467 37,000  Level Atlanta Center
Thu 08:04:47 PM 34.0642 -84.6431 175° South 400 460 37,000  Level Atlanta Center
Thu 08:05:47 PM 33.9578 -84.6322 175° South 400 460 37,000  Level Atlanta Center
Thu 08:06:47 PM 33.8514 -84.6217 175° South 395 455 37,000  Level Atlanta Center
Thu 08:07:47 PM 33.7325 -84.6158 178° South 389 448 37,000  Level Atlanta Center
Thu 08:08:47 PM 33.6447 -84.6028 173° South 383 441 37,000  Level Atlanta Center
Thu 08:09:47 PM 33.5364 -84.5797 170° South 388 447 37,000  Level Atlanta Center
Thu 08:10:47 PM 33.4364 -84.5292 157° South 394 453 37,000  Level Atlanta Center
Thu 08:11:47 PM 33.3342 -84.4814 159° South 399 459 37,000  Level Atlanta Center
Thu 08:12:47 PM 33.2342 -84.4336 158° South 394 453 37,000  Level Atlanta Center
Thu 08:13:47 PM 33.1300 -84.3886 160° South 394 453 37,000  Level Atlanta Center
Thu 08:14:47 PM 33.0194 -84.3311 156° South 388 447 37,000  Level Atlanta Center
Thu 08:15:47 PM 32.9194 -84.2839 158° South 393 452 37,000  Level Atlanta Center
Thu 08:16:47 PM 32.8131 -84.2317 158° South 399 459 37,000  Level Atlanta Center
Thu 08:17:47 PM 32.7192 -84.1844 157° South 399 459 37,000  Level Atlanta Center
Thu 08:18:47 PM 32.6128 -84.1325 158° South 411 473 37,000  Level Atlanta Center
Thu 08:19:47 PM 32.5042 -84.0831 159° South 411 473 37,000  Level Atlanta Center
Thu 08:20:47 PM 32.3958 -84.0314 158° South 411 473 37,000  Level Atlanta Center
Thu 08:21:47 PM 32.2892 -83.9797 158° South 411 473 37,000  Level Atlanta Center
Thu 08:23:52 PM 32.0500 -83.8681 158° South 418 481 37,000  Level Jacksonville Center
Thu 08:24:52 PM 31.9419 -83.8156 158° South 418 481 37,000  Level Jacksonville Center
Thu 08:25:52 PM 31.8336 -83.7631 158° South 418 481 37,000  Level Jacksonville Center
Thu 08:26:52 PM 31.7256 -83.7108 158° South 418 481 37,000 -50 Level Jacksonville Center
Thu 08:27:52 PM 31.6400 -83.6736 160° South 418 481 36,900  Descending Jacksonville Center
Thu 08:28:52 PM 31.5192 -83.6214 160° South 426 490 37,000 50 Climbing Jacksonville Center
Thu 08:29:52 PM 31.4192 -83.5864 163° South 404 465 37,000  Level Jacksonville Center
Thu 08:30:52 PM 31.3314 -83.6125 194° South 341 392 37,000  Level Jacksonville Center
Thu 08:31:52 PM 31.2375 -83.6167 182° South 341 392 37,000  Level Jacksonville Center
Thu 08:32:52 PM 31.1436 -83.5892 166° South 341 392 37,000  Level Jacksonville Center
Thu 08:33:52 PM 31.0436 -83.5328 154° Southeast 366 421 37,000  Level Jacksonville Center
Thu 08:34:52 PM 30.9458 -83.4739 153° Southeast 382 440 37,000  Level Jacksonville Center
Thu 08:35:52 PM 30.8458 -83.4200 155° Southeast 393 452 37,000  Level Jacksonville Center
Thu 08:36:52 PM 30.7375 -83.3567 153° Southeast 388 447 37,000  Level Jacksonville Center
Thu 08:37:52 PM 30.6397 -83.3006 154° Southeast 388 447 37,000  Level Jacksonville Center
Thu 08:38:52 PM 30.5353 -83.2422 154° Southeast 399 459 37,000 -50 Level Jacksonville Center
Thu 08:39:52 PM 30.4333 -83.1842 154° Southeast 404 465 36,900 -50 Descending Jacksonville Center
Thu 08:40:52 PM 30.3311 -83.1283 155° Southeast 404 465 36,900  Level Jacksonville Center
Thu 08:41:52 PM 30.2308 -83.0728 154° Southeast 404 465 36,900 50 Level Jacksonville Center
Thu 08:42:52 PM 30.1308 -83.0175 154° Southeast 404 465 37,000  Climbing Jacksonville Center
Thu 08:43:52 PM 30.0306 -82.9597 153° Southeast 404 465 36,900  Descending Jacksonville Center
Thu 08:44:52 PM 29.9283 -82.9069 156° South 393 452 37,000 50 Climbing Jacksonville Center
Thu 08:45:52 PM 29.8281 -82.8519 155° Southeast 393 452 37,000  Level Jacksonville Center
Thu 08:46:52 PM 29.7278 -82.7992 155° Southeast 399 459 37,000  Level Jacksonville Center
Thu 08:47:52 PM 29.6233 -82.7708 167° South 385 443 37,000  Level Jacksonville Center
Thu 08:48:52 PM 29.5147 -82.7447 168° South 398 458 37,000  Level Jacksonville Center
Thu 08:49:52 PM 29.4208 -82.7161 165° South 398 458 37,000 -50 Level Jacksonville Center
Thu 08:50:52 PM 29.3122 -82.6903 168° South 393 452 36,900 -50 Descending Jacksonville Center
Thu 08:51:52 PM 29.2036 -82.6642 168° South 393 452 36,900  Level Jacksonville Center
Thu 08:52:52 PM 29.0950 -82.6383 168° South 393 452 36,900  Level Jacksonville Center
Thu 08:53:52 PM 28.9864 -82.6100 167° South 393 452 36,900 50 Level Jacksonville Center
Thu 08:54:52 PM 28.8758 -82.5844 169° South 393 452 37,000  Climbing Jacksonville Center
Thu 08:55:52 PM 28.7672 -82.5561 167° South 393 452 36,900  Descending Jacksonville Center
Thu 08:56:52 PM 28.6481 -82.5306 169° South 398 458 37,000 50 Climbing Jacksonville Center
Thu 08:57:52 PM 28.5353 -82.5028 168° South 398 458 37,000 -35 Level Jacksonville Center
Thu 08:59:43 PM 28.3253 -82.4525 168° South 409 471 36,900 -35 Descending Miami Center
Thu 09:00:43 PM 28.2094 -82.4231 167° South 418 481 36,900 50 Level Miami Center
Thu 09:01:43 PM 28.0958 -82.3942 167° South 423 487 37,000 50 Climbing Miami Center
Thu 09:02:43 PM 27.9822 -82.3675 168° South 428 493 37,000  Level Miami Center
Thu 09:03:43 PM 27.8622 -82.3381 168° South 428 493 37,000 -1,050 Level Miami Center
Thu 09:04:43 PM 27.7528 -82.3117 168° South 422 486 34,900 -2,500 Descending Miami Center
Thu 09:05:43 PM 27.6347 -82.2850 169° South 433 498 32,000 -2,450 Descending Miami Center
Thu 09:06:43 PM 27.5128 -82.2533 167° South 447 514 30,000 -1,800 Descending Miami Center
Thu 09:07:43 PM 27.3969 -82.2269 169° South 459 528 28,400 -1,600 Descending Miami Center
Thu 09:08:43 PM 27.2722 -82.1558 153° Southeast 457 526 26,800 -1,500 Descending Miami Center
Thu 09:09:43 PM 27.1608 -82.0667 145° Southeast 474 545 25,400 -1,300 Descending Miami Center
Thu 09:10:43 PM 27.0575 -81.9758 142° Southeast 482 555 24,200 -1,600 Descending Miami Center
Thu 09:11:43 PM 26.9750 -81.8906 137° Southeast 465 535 22,200 -2,050 Descending Miami Center
Thu 09:12:43 PM 26.8883 -81.8008 137° Southeast 444 511 20,100 -1,550 Descending Miami Center
Thu 09:13:43 PM 26.8058 -81.7111 136° Southeast 428 493 19,100 -550 Descending Miami Center
Thu 09:14:43 PM 26.7192 -81.6122 134° Southeast 404 465 19,000 -50 Descending Miami Center
Thu 09:15:43 PM 26.6444 -81.5350 137° Southeast 404 465 19,000  Level Miami Center
Thu 09:16:43 PM 26.5636 -81.4506 137° Southeast 412 474 19,000 -700 Level Miami Center
Thu 09:17:43 PM 26.4808 -81.3639 137° Southeast 412 474 17,600 -2,200 Descending Miami Center
Thu 09:18:43 PM 26.3978 -81.2747 136° Southeast 412 474 14,600 -2,750 Descending Miami Center
Thu 09:19:43 PM 26.3150 -81.1883 137° Southeast 412 474 12,100 -2,100 Descending Miami Center
Thu 09:20:43 PM 26.2419 -81.1117 137° Southeast 396 456 10,400 -1,607 Descending Miami Center
Thu 09:21:35 PM 26.1728 -81.0467 140° Southeast 326 375 9,100 -1,485 Descending Miami Center
Thu 09:22:24 PM 26.1242 -80.9964 137° Southeast 296 341 7,900 -1,059 Descending Miami Center
Thu 09:22:43 PM 26.1122 -80.9775 125° Southeast 324 373 7,900 -492 Level Miami Center
Thu 09:23:25 PM 26.0892 -80.9072 110° East 297 342 7,400 -700 Descending Miami Center
Thu 09:23:43 PM 26.0917 -80.8889 81° East 288 331 7,200 -1,154 Descending Miami Center
Thu 09:24:43 PM 26.0794 -80.8006 99° East 288 331 5,900 -699 Descending Miami Center
Thu 09:25:26 PM 26.0753 -80.7264 94° East 292 336 6,000  Climbing Miami Center
Thu 09:25:43 PM 26.0819 -80.7106 65° Northeast 282 325 5,900  Descending Miami Center
Thu 09:26:27 PM 26.0775 -80.6364 94° East 292 336 6,000  Climbing Miami Center
Thu 09:26:43 PM 26.0800 -80.6203 80° East 282 325 5,900  Descending Miami Center
Thu 09:27:22 PM 26.0753 -80.5553 95° East 292 336 6,000 100 Climbing Miami Center
Thu 09:27:43 PM 26.0803 -80.5300 78° East 287 330 6,000 -896 Level Miami Center
Thu 09:28:29 PM 26.0756 -80.4650 95° East 267 307 5,000 -1,274 Descending Miami Center
Thu 09:29:36 PM 26.0756 -80.3819 90° East 229 264 3,600 -1,254 Descending Miami Center

Login

Don't have an account? Register now (free) for customized features, flight alerts, and more!